sensor_id;sensor_type;location;lat;lon;timestamp;temperature;humidity
66708;DHT22;53622;0.000;0.000;2023-06-10T00:01:43;25.10;67.90
66708;DHT22;53622;0.000;0.000;2023-06-10T00:04:15;25.10;68.00
66708;DHT22;53622;0.000;0.000;2023-06-10T00:06:45;25.10;67.90
66708;DHT22;53622;0.000;0.000;2023-06-10T00:09:16;25.10;67.80
66708;DHT22;53622;0.000;0.000;2023-06-10T00:11:46;25.10;67.80
66708;DHT22;53622;0.000;0.000;2023-06-10T00:14:16;25.10;67.80
66708;DHT22;53622;0.000;0.000;2023-06-10T00:16:46;25.10;67.70
66708;DHT22;53622;0.000;0.000;2023-06-10T00:19:15;25.10;67.80
66708;DHT22;53622;0.000;0.000;2023-06-10T00:21:49;25.10;67.80
66708;DHT22;53622;0.000;0.000;2023-06-10T00:24:19;25.10;67.80
66708;DHT22;53622;0.000;0.000;2023-06-10T00:26:48;25.10;67.70
66708;DHT22;53622;0.000;0.000;2023-06-10T00:29:19;25.10;67.60
66708;DHT22;53622;0.000;0.000;2023-06-10T00:31:48;25.10;67.60
66708;DHT22;53622;0.000;0.000;2023-06-10T00:34:17;25.10;67.50
66708;DHT22;53622;0.000;0.000;2023-06-10T00:36:47;25.10;67.50
66708;DHT22;53622;0.000;0.000;2023-06-10T00:39:20;25.10;67.50
66708;DHT22;53622;0.000;0.000;2023-06-10T00:41:49;25.10;67.50
66708;DHT22;53622;0.000;0.000;2023-06-10T00:44:19;25.10;67.50
66708;DHT22;53622;0.000;0.000;2023-06-10T00:46:49;25.10;67.40
66708;DHT22;53622;0.000;0.000;2023-06-10T00:49:21;25.10;67.40
66708;DHT22;53622;0.000;0.000;2023-06-10T00:51:52;25.10;67.40
66708;DHT22;53622;0.000;0.000;2023-06-10T00:54:22;25.10;67.30
66708;DHT22;53622;0.000;0.000;2023-06-10T00:56:51;25.10;67.30
66708;DHT22;53622;0.000;0.000;2023-06-10T00:59:22;25.10;67.30
66708;DHT22;53622;0.000;0.000;2023-06-10T01:01:53;25.10;67.30
66708;DHT22;53622;0.000;0.000;2023-06-10T01:04:23;25.10;67.30
66708;DHT22;53622;0.000;0.000;2023-06-10T01:06:57;25.10;67.30
66708;DHT22;53622;0.000;0.000;2023-06-10T01:09:33;25.10;67.30
66708;DHT22;53622;0.000;0.000;2023-06-10T01:12:10;25.10;67.40
66708;DHT22;53622;0.000;0.000;2023-06-10T01:14:42;25.10;67.40
66708;DHT22;53622;0.000;0.000;2023-06-10T01:17:13;25.10;67.30
66708;DHT22;53622;0.000;0.000;2023-06-10T01:19:51;25.00;67.20
66708;DHT22;53622;0.000;0.000;2023-06-10T01:22:25;25.00;67.10
66708;DHT22;53622;0.000;0.000;2023-06-10T01:24:56;25.10;67.20
66708;DHT22;53622;0.000;0.000;2023-06-10T01:27:30;25.10;67.20
66708;DHT22;53622;0.000;0.000;2023-06-10T01:30:06;25.10;67.10
66708;DHT22;53622;0.000;0.000;2023-06-10T01:32:41;25.10;67.20
66708;DHT22;53622;0.000;0.000;2023-06-10T01:35:12;25.10;67.10
66708;DHT22;53622;0.000;0.000;2023-06-10T01:37:46;25.00;67.00
66708;DHT22;53622;0.000;0.000;2023-06-10T01:40:16;25.10;67.20
66708;DHT22;53622;0.000;0.000;2023-06-10T01:42:46;25.10;67.10
66708;DHT22;53622;0.000;0.000;2023-06-10T01:45:15;25.10;67.20
66708;DHT22;53622;0.000;0.000;2023-06-10T01:47:45;25.10;67.20
66708;DHT22;53622;0.000;0.000;2023-06-10T01:50:14;25.00;67.10
66708;DHT22;53622;0.000;0.000;2023-06-10T01:52:45;25.10;67.10
66708;DHT22;53622;0.000;0.000;2023-06-10T01:55:15;25.10;67.10
66708;DHT22;53622;0.000;0.000;2023-06-10T01:57:44;25.00;67.00
66708;DHT22;53622;0.000;0.000;2023-06-10T02:00:15;25.00;67.10
66708;DHT22;53622;0.000;0.000;2023-06-10T02:02:45;25.00;67.10
66708;DHT22;53622;0.000;0.000;2023-06-10T02:05:15;25.00;67.10
66708;DHT22;53622;0.000;0.000;2023-06-10T02:07:46;25.00;67.10
66708;DHT22;53622;0.000;0.000;2023-06-10T02:10:15;25.00;67.10
66708;DHT22;53622;0.000;0.000;2023-06-10T02:12:44;25.00;67.00
66708;DHT22;53622;0.000;0.000;2023-06-10T02:15:14;25.00;67.10
66708;DHT22;53622;0.000;0.000;2023-06-10T02:17:44;25.00;67.10
66708;DHT22;53622;0.000;0.000;2023-06-10T02:20:13;25.00;67.20
66708;DHT22;53622;0.000;0.000;2023-06-10T02:22:42;25.00;67.10
66708;DHT22;53622;0.000;0.000;2023-06-10T02:25:13;25.00;67.10
66708;DHT22;53622;0.000;0.000;2023-06-10T02:27:42;25.00;67.10
66708;DHT22;53622;0.000;0.000;2023-06-10T02:30:12;25.00;67.10
66708;DHT22;53622;0.000;0.000;2023-06-10T02:32:42;25.00;67.00
66708;DHT22;53622;0.000;0.000;2023-06-10T02:35:17;25.00;67.00
66708;DHT22;53622;0.000;0.000;2023-06-10T02:37:47;25.00;66.90
66708;DHT22;53622;0.000;0.000;2023-06-10T02:40:19;25.00;66.90
66708;DHT22;53622;0.000;0.000;2023-06-10T02:42:49;25.00;66.90
66708;DHT22;53622;0.000;0.000;2023-06-10T02:45:19;25.00;66.90
66708;DHT22;53622;0.000;0.000;2023-06-10T02:47:49;25.00;66.80
66708;DHT22;53622;0.000;0.000;2023-06-10T02:50:19;25.00;66.80
66708;DHT22;53622;0.000;0.000;2023-06-10T02:53:20;25.00;66.70
66708;DHT22;53622;0.000;0.000;2023-06-10T02:55:57;25.00;66.80
66708;DHT22;53622;0.000;0.000;2023-06-10T02:58:26;25.00;66.80
66708;DHT22;53622;0.000;0.000;2023-06-10T03:00:56;25.00;66.80
66708;DHT22;53622;0.000;0.000;2023-06-10T03:03:28;25.00;66.80
66708;DHT22;53622;0.000;0.000;2023-06-10T03:06:04;25.00;66.70
66708;DHT22;53622;0.000;0.000;2023-06-10T03:08:34;25.00;66.70
66708;DHT22;53622;0.000;0.000;2023-06-10T03:11:09;25.00;66.70
66708;DHT22;53622;0.000;0.000;2023-06-10T03:13:39;25.00;66.70
66708;DHT22;53622;0.000;0.000;2023-06-10T03:16:11;25.00;66.70
66708;DHT22;53622;0.000;0.000;2023-06-10T03:18:42;25.00;66.60
66708;DHT22;53622;0.000;0.000;2023-06-10T03:21:11;25.00;66.60
66708;DHT22;53622;0.000;0.000;2023-06-10T03:23:42;25.00;66.60
66708;DHT22;53622;0.000;0.000;2023-06-10T03:26:13;25.00;66.60
66708;DHT22;53622;0.000;0.000;2023-06-10T03:28:46;25.00;66.60
66708;DHT22;53622;0.000;0.000;2023-06-10T03:31:15;25.00;66.60
66708;DHT22;53622;0.000;0.000;2023-06-10T03:33:45;25.00;66.60
66708;DHT22;53622;0.000;0.000;2023-06-10T03:36:15;25.00;66.60
66708;DHT22;53622;0.000;0.000;2023-06-10T03:38:45;24.90;66.60
66708;DHT22;53622;0.000;0.000;2023-06-10T03:41:15;24.90;66.60
66708;DHT22;53622;0.000;0.000;2023-06-10T03:43:46;25.00;66.70
66708;DHT22;53622;0.000;0.000;2023-06-10T03:46:15;25.00;66.70
66708;DHT22;53622;0.000;0.000;2023-06-10T03:48:45;25.00;66.70
66708;DHT22;53622;0.000;0.000;2023-06-10T03:51:16;25.00;66.70
66708;DHT22;53622;0.000;0.000;2023-06-10T03:53:45;24.90;66.60
66708;DHT22;53622;0.000;0.000;2023-06-10T03:56:16;24.90;66.60
66708;DHT22;53622;0.000;0.000;2023-06-10T03:58:45;25.00;66.60
66708;DHT22;53622;0.000;0.000;2023-06-10T04:01:15;24.90;66.60
66708;DHT22;53622;0.000;0.000;2023-06-10T04:03:45;24.90;66.60
66708;DHT22;53622;0.000;0.000;2023-06-10T04:06:16;24.90;66.70
66708;DHT22;53622;0.000;0.000;2023-06-10T04:08:46;24.90;66.60
66708;DHT22;53622;0.000;0.000;2023-06-10T04:11:16;24.90;66.60
66708;DHT22;53622;0.000;0.000;2023-06-10T04:13:46;24.90;66.60
66708;DHT22;53622;0.000;0.000;2023-06-10T04:16:15;24.90;66.60
66708;DHT22;53622;0.000;0.000;2023-06-10T04:18:46;24.90;66.70
66708;DHT22;53622;0.000;0.000;2023-06-10T04:21:17;24.90;66.70
66708;DHT22;53622;0.000;0.000;2023-06-10T04:23:49;24.90;66.70
66708;DHT22;53622;0.000;0.000;2023-06-10T04:26:21;24.90;66.70
66708;DHT22;53622;0.000;0.000;2023-06-10T04:28:52;24.90;66.70
66708;DHT22;53622;0.000;0.000;2023-06-10T04:31:21;24.90;66.70
66708;DHT22;53622;0.000;0.000;2023-06-10T04:33:51;24.90;66.80
66708;DHT22;53622;0.000;0.000;2023-06-10T04:36:21;24.90;66.80
66708;DHT22;53622;0.000;0.000;2023-06-10T04:38:51;24.80;66.80
66708;DHT22;53622;0.000;0.000;2023-06-10T04:41:23;24.80;66.90
66708;DHT22;53622;0.000;0.000;2023-06-10T04:43:54;24.90;67.10
66708;DHT22;53622;0.000;0.000;2023-06-10T04:46:23;24.90;67.10
66708;DHT22;53622;0.000;0.000;2023-06-10T04:48:53;24.90;67.10
66708;DHT22;53622;0.000;0.000;2023-06-10T04:51:22;24.80;67.00
66708;DHT22;53622;0.000;0.000;2023-06-10T04:53:52;24.80;67.00
66708;DHT22;53622;0.000;0.000;2023-06-10T04:56:23;24.80;67.10
66708;DHT22;53622;0.000;0.000;2023-06-10T04:58:52;24.90;67.20
66708;DHT22;53622;0.000;0.000;2023-06-10T05:01:21;24.90;67.20
66708;DHT22;53622;0.000;0.000;2023-06-10T05:03:51;24.90;67.30
66708;DHT22;53622;0.000;0.000;2023-06-10T05:06:20;24.80;67.20
66708;DHT22;53622;0.000;0.000;2023-06-10T05:08:49;24.80;67.20
66708;DHT22;53622;0.000;0.000;2023-06-10T05:11:18;24.90;67.40
66708;DHT22;53622;0.000;0.000;2023-06-10T05:13:49;24.90;67.20
66708;DHT22;53622;0.000;0.000;2023-06-10T05:16:18;24.90;67.30
66708;DHT22;53622;0.000;0.000;2023-06-10T05:18:47;24.90;67.40
66708;DHT22;53622;0.000;0.000;2023-06-10T05:21:18;24.90;67.40
66708;DHT22;53622;0.000;0.000;2023-06-10T05:23:48;24.80;67.50
66708;DHT22;53622;0.000;0.000;2023-06-10T05:26:17;24.80;67.50
66708;DHT22;53622;0.000;0.000;2023-06-10T05:28:47;24.80;67.60
66708;DHT22;53622;0.000;0.000;2023-06-10T05:31:17;24.90;67.50
66708;DHT22;53622;0.000;0.000;2023-06-10T05:33:47;24.90;67.40
66708;DHT22;53622;0.000;0.000;2023-06-10T05:36:16;24.90;67.20
66708;DHT22;53622;0.000;0.000;2023-06-10T05:38:46;24.90;67.00
66708;DHT22;53622;0.000;0.000;2023-06-10T05:41:15;24.90;66.70
66708;DHT22;53622;0.000;0.000;2023-06-10T05:43:44;24.90;66.60
66708;DHT22;53622;0.000;0.000;2023-06-10T05:46:14;24.90;66.90
66708;DHT22;53622;0.000;0.000;2023-06-10T05:48:44;24.90;67.10
66708;DHT22;53622;0.000;0.000;2023-06-10T05:51:14;24.90;67.20
66708;DHT22;53622;0.000;0.000;2023-06-10T05:53:43;24.90;67.20
66708;DHT22;53622;0.000;0.000;2023-06-10T05:56:14;24.90;67.50
66708;DHT22;53622;0.000;0.000;2023-06-10T05:58:43;24.90;67.40
66708;DHT22;53622;0.000;0.000;2023-06-10T06:01:13;24.90;68.40
66708;DHT22;53622;0.000;0.000;2023-06-10T06:03:44;24.90;67.90
66708;DHT22;53622;0.000;0.000;2023-06-10T06:06:13;24.90;67.70
66708;DHT22;53622;0.000;0.000;2023-06-10T06:08:43;24.90;67.60
66708;DHT22;53622;0.000;0.000;2023-06-10T06:11:12;24.90;67.80
66708;DHT22;53622;0.000;0.000;2023-06-10T06:13:41;24.90;67.80
66708;DHT22;53622;0.000;0.000;2023-06-10T06:16:11;25.00;67.80
66708;DHT22;53622;0.000;0.000;2023-06-10T06:18:40;25.00;67.70
66708;DHT22;53622;0.000;0.000;2023-06-10T06:21:11;25.00;67.80
66708;DHT22;53622;0.000;0.000;2023-06-10T06:23:40;24.90;67.80
66708;DHT22;53622;0.000;0.000;2023-06-10T06:26:10;24.90;67.80
66708;DHT22;53622;0.000;0.000;2023-06-10T06:28:39;25.00;67.80
66708;DHT22;53622;0.000;0.000;2023-06-10T06:31:08;25.00;68.20
66708;DHT22;53622;0.000;0.000;2023-06-10T06:33:37;25.00;68.20
66708;DHT22;53622;0.000;0.000;2023-06-10T06:36:07;25.00;68.30
66708;DHT22;53622;0.000;0.000;2023-06-10T06:38:38;25.00;68.30
66708;DHT22;53622;0.000;0.000;2023-06-10T06:41:08;25.00;68.40
66708;DHT22;53622;0.000;0.000;2023-06-10T06:43:37;25.00;68.20
66708;DHT22;53622;0.000;0.000;2023-06-10T06:46:25;25.00;68.20
66708;DHT22;53622;0.000;0.000;2023-06-10T06:48:56;25.00;68.20
66708;DHT22;53622;0.000;0.000;2023-06-10T06:51:25;25.00;68.30
66708;DHT22;53622;0.000;0.000;2023-06-10T06:53:57;25.00;68.40
66708;DHT22;53622;0.000;0.000;2023-06-10T06:56:26;25.00;68.90
66708;DHT22;53622;0.000;0.000;2023-06-10T06:58:56;25.00;68.90
66708;DHT22;53622;0.000;0.000;2023-06-10T07:01:25;25.00;69.30
66708;DHT22;53622;0.000;0.000;2023-06-10T07:03:54;25.00;69.30
66708;DHT22;53622;0.000;0.000;2023-06-10T07:06:24;25.00;69.40
66708;DHT22;53622;0.000;0.000;2023-06-10T07:08:53;25.00;69.20
66708;DHT22;53622;0.000;0.000;2023-06-10T07:11:24;25.00;69.20
66708;DHT22;53622;0.000;0.000;2023-06-10T07:13:54;25.00;69.30
66708;DHT22;53622;0.000;0.000;2023-06-10T07:16:24;25.00;69.50
66708;DHT22;53622;0.000;0.000;2023-06-10T07:18:53;25.00;69.40
66708;DHT22;53622;0.000;0.000;2023-06-10T07:21:22;25.00;69.30
66708;DHT22;53622;0.000;0.000;2023-06-10T07:23:52;25.00;69.20
66708;DHT22;53622;0.000;0.000;2023-06-10T07:26:23;25.00;69.00
66708;DHT22;53622;0.000;0.000;2023-06-10T07:28:53;25.00;69.00
66708;DHT22;53622;0.000;0.000;2023-06-10T07:31:23;25.00;69.00
66708;DHT22;53622;0.000;0.000;2023-06-10T07:33:53;25.00;69.30
66708;DHT22;53622;0.000;0.000;2023-06-10T07:36:22;25.00;70.30
66708;DHT22;53622;0.000;0.000;2023-06-10T07:38:51;25.00;70.00
66708;DHT22;53622;0.000;0.000;2023-06-10T07:41:23;25.00;70.20
66708;DHT22;53622;0.000;0.000;2023-06-10T07:43:53;25.10;70.10
66708;DHT22;53622;0.000;0.000;2023-06-10T07:46:24;25.10;69.90
66708;DHT22;53622;0.000;0.000;2023-06-10T07:48:55;25.10;69.70
66708;DHT22;53622;0.000;0.000;2023-06-10T07:51:24;25.10;69.90
66708;DHT22;53622;0.000;0.000;2023-06-10T07:53:53;25.10;69.70
66708;DHT22;53622;0.000;0.000;2023-06-10T07:56:24;25.20;69.70
66708;DHT22;53622;0.000;0.000;2023-06-10T07:58:54;25.10;69.60
66708;DHT22;53622;0.000;0.000;2023-06-10T08:01:25;25.20;69.90
66708;DHT22;53622;0.000;0.000;2023-06-10T08:03:58;25.20;70.10
66708;DHT22;53622;0.000;0.000;2023-06-10T08:06:27;25.20;70.20
66708;DHT22;53622;0.000;0.000;2023-06-10T08:08:56;25.20;70.00
66708;DHT22;53622;0.000;0.000;2023-06-10T08:11:27;25.30;70.00
66708;DHT22;53622;0.000;0.000;2023-06-10T08:13:57;25.30;70.10
66708;DHT22;53622;0.000;0.000;2023-06-10T08:16:26;25.30;70.00
66708;DHT22;53622;0.000;0.000;2023-06-10T08:18:56;25.30;70.00
66708;DHT22;53622;0.000;0.000;2023-06-10T08:21:25;25.40;70.20
66708;DHT22;53622;0.000;0.000;2023-06-10T08:23:57;25.30;70.10
66708;DHT22;53622;0.000;0.000;2023-06-10T08:26:28;25.40;70.00
66708;DHT22;53622;0.000;0.000;2023-06-10T08:28:57;25.40;70.00
66708;DHT22;53622;0.000;0.000;2023-06-10T08:31:26;25.40;69.90
66708;DHT22;53622;0.000;0.000;2023-06-10T08:33:56;25.40;69.70
66708;DHT22;53622;0.000;0.000;2023-06-10T08:36:25;25.40;69.90
66708;DHT22;53622;0.000;0.000;2023-06-10T08:38:54;25.40;69.90
66708;DHT22;53622;0.000;0.000;2023-06-10T08:41:25;25.50;70.00
66708;DHT22;53622;0.000;0.000;2023-06-10T08:44:06;25.50;70.30
66708;DHT22;53622;0.000;0.000;2023-06-10T08:46:37;25.40;70.20
66708;DHT22;53622;0.000;0.000;2023-06-10T08:49:07;25.50;70.40
66708;DHT22;53622;0.000;0.000;2023-06-10T08:51:37;25.50;70.30
66708;DHT22;53622;0.000;0.000;2023-06-10T08:54:14;25.50;70.60
66708;DHT22;53622;0.000;0.000;2023-06-10T08:56:45;25.50;70.70
66708;DHT22;53622;0.000;0.000;2023-06-10T08:59:18;25.50;70.50
66708;DHT22;53622;0.000;0.000;2023-06-10T09:01:50;25.50;70.60
66708;DHT22;53622;0.000;0.000;2023-06-10T09:04:20;25.50;70.90
66708;DHT22;53622;0.000;0.000;2023-06-10T09:06:50;25.50;71.00
66708;DHT22;53622;0.000;0.000;2023-06-10T09:09:20;25.50;71.70
66708;DHT22;53622;0.000;0.000;2023-06-10T09:11:50;25.50;70.90
66708;DHT22;53622;0.000;0.000;2023-06-10T09:14:20;25.50;70.70
66708;DHT22;53622;0.000;0.000;2023-06-10T09:16:50;25.50;70.60
66708;DHT22;53622;0.000;0.000;2023-06-10T09:19:20;25.60;70.60
66708;DHT22;53622;0.000;0.000;2023-06-10T09:21:49;25.60;70.60
66708;DHT22;53622;0.000;0.000;2023-06-10T09:24:18;25.60;70.60
66708;DHT22;53622;0.000;0.000;2023-06-10T09:26:48;25.60;70.70
66708;DHT22;53622;0.000;0.000;2023-06-10T09:29:20;25.60;70.90
66708;DHT22;53622;0.000;0.000;2023-06-10T09:31:49;25.60;70.90
66708;DHT22;53622;0.000;0.000;2023-06-10T09:34:18;25.60;70.90
66708;DHT22;53622;0.000;0.000;2023-06-10T09:36:48;25.60;71.00
66708;DHT22;53622;0.000;0.000;2023-06-10T09:39:18;25.70;71.00
66708;DHT22;53622;0.000;0.000;2023-06-10T09:41:48;25.70;70.80
66708;DHT22;53622;0.000;0.000;2023-06-10T09:44:20;25.70;71.10
66708;DHT22;53622;0.000;0.000;2023-06-10T09:46:50;25.70;70.80
66708;DHT22;53622;0.000;0.000;2023-06-10T09:49:19;25.70;70.70
66708;DHT22;53622;0.000;0.000;2023-06-10T09:51:52;25.70;70.60
66708;DHT22;53622;0.000;0.000;2023-06-10T09:54:22;25.80;70.20
66708;DHT22;53622;0.000;0.000;2023-06-10T09:56:52;25.80;70.10
66708;DHT22;53622;0.000;0.000;2023-06-10T09:59:30;25.80;70.30
66708;DHT22;53622;0.000;0.000;2023-06-10T10:02:00;25.80;70.20
66708;DHT22;53622;0.000;0.000;2023-06-10T10:04:29;25.80;70.30
66708;DHT22;53622;0.000;0.000;2023-06-10T10:06:59;25.80;70.60
66708;DHT22;53622;0.000;0.000;2023-06-10T10:09:28;25.80;70.70
66708;DHT22;53622;0.000;0.000;2023-06-10T10:11:58;25.80;70.50
66708;DHT22;53622;0.000;0.000;2023-06-10T10:14:32;25.80;70.50
66708;DHT22;53622;0.000;0.000;2023-06-10T10:17:02;25.80;70.50
66708;DHT22;53622;0.000;0.000;2023-06-10T10:19:37;25.70;70.40
66708;DHT22;53622;0.000;0.000;2023-06-10T10:22:08;25.70;70.70
66708;DHT22;53622;0.000;0.000;2023-06-10T10:24:42;25.70;70.70
66708;DHT22;53622;0.000;0.000;2023-06-10T10:27:18;25.70;70.90
66708;DHT22;53622;0.000;0.000;2023-06-10T10:29:52;25.70;71.20
66708;DHT22;53622;0.000;0.000;2023-06-10T10:32:28;25.70;71.00
66708;DHT22;53622;0.000;0.000;2023-06-10T10:35:06;25.70;70.90
66708;DHT22;53622;0.000;0.000;2023-06-10T10:37:37;25.60;71.80
66708;DHT22;53622;0.000;0.000;2023-06-10T10:40:08;25.60;72.20
66708;DHT22;53622;0.000;0.000;2023-06-10T10:42:38;25.60;72.60
66708;DHT22;53622;0.000;0.000;2023-06-10T10:45:10;25.60;72.80
66708;DHT22;53622;0.000;0.000;2023-06-10T10:47:41;25.60;73.20
66708;DHT22;53622;0.000;0.000;2023-06-10T10:50:16;25.50;73.20
66708;DHT22;53622;0.000;0.000;2023-06-10T10:52:54;25.60;73.90
66708;DHT22;53622;0.000;0.000;2023-06-10T10:55:24;25.50;73.90
66708;DHT22;53622;0.000;0.000;2023-06-10T10:57:55;25.50;74.00
66708;DHT22;53622;0.000;0.000;2023-06-10T11:00:27;25.50;74.00
66708;DHT22;53622;0.000;0.000;2023-06-10T11:02:59;25.50;73.70
66708;DHT22;53622;0.000;0.000;2023-06-10T11:05:38;25.50;73.70
66708;DHT22;53622;0.000;0.000;2023-06-10T11:08:09;25.50;74.50
66708;DHT22;53622;0.000;0.000;2023-06-10T11:10:39;25.50;75.20
66708;DHT22;53622;0.000;0.000;2023-06-10T11:13:10;25.50;74.80
66708;DHT22;53622;0.000;0.000;2023-06-10T11:15:46;25.50;75.10
66708;DHT22;53622;0.000;0.000;2023-06-10T11:18:23;25.50;75.00
66708;DHT22;53622;0.000;0.000;2023-06-10T11:20:58;25.50;75.60
66708;DHT22;53622;0.000;0.000;2023-06-10T11:23:34;25.50;76.80
66708;DHT22;53622;0.000;0.000;2023-06-10T11:26:31;25.50;76.70
66708;DHT22;53622;0.000;0.000;2023-06-10T11:29:05;25.50;78.70
66708;DHT22;53622;0.000;0.000;2023-06-10T11:31:50;25.50;78.00
66708;DHT22;53622;0.000;0.000;2023-06-10T11:34:23;25.60;78.40
66708;DHT22;53622;0.000;0.000;2023-06-10T11:36:55;25.60;77.90
66708;DHT22;53622;0.000;0.000;2023-06-10T11:39:25;25.60;77.80
66708;DHT22;53622;0.000;0.000;2023-06-10T11:41:54;25.60;79.50
66708;DHT22;53622;0.000;0.000;2023-06-10T11:44:28;25.70;79.50
66708;DHT22;53622;0.000;0.000;2023-06-10T11:47:01;25.70;79.40
66708;DHT22;53622;0.000;0.000;2023-06-10T11:49:30;25.70;79.80
66708;DHT22;53622;0.000;0.000;2023-06-10T11:52:00;25.70;81.00
66708;DHT22;53622;0.000;0.000;2023-06-10T11:54:29;25.70;79.30
66708;DHT22;53622;0.000;0.000;2023-06-10T11:56:58;25.70;79.10
66708;DHT22;53622;0.000;0.000;2023-06-10T11:59:28;25.70;80.20
66708;DHT22;53622;0.000;0.000;2023-06-10T12:01:58;25.70;80.50
66708;DHT22;53622;0.000;0.000;2023-06-10T12:04:29;25.70;80.00
66708;DHT22;53622;0.000;0.000;2023-06-10T12:06:58;25.70;80.00
66708;DHT22;53622;0.000;0.000;2023-06-10T12:09:29;25.70;80.20
66708;DHT22;53622;0.000;0.000;2023-06-10T12:12:02;25.70;80.20
66708;DHT22;53622;0.000;0.000;2023-06-10T12:14:55;25.70;80.00
66708;DHT22;53622;0.000;0.000;2023-06-10T12:17:37;25.70;79.80
66708;DHT22;53622;0.000;0.000;2023-06-10T12:20:24;25.70;79.50
66708;DHT22;53622;0.000;0.000;2023-06-10T12:22:56;25.70;79.30
66708;DHT22;53622;0.000;0.000;2023-06-10T12:25:26;25.70;79.30
66708;DHT22;53622;0.000;0.000;2023-06-10T12:27:57;25.70;79.00
66708;DHT22;53622;0.000;0.000;2023-06-10T12:30:27;25.70;78.50
66708;DHT22;53622;0.000;0.000;2023-06-10T12:32:57;25.80;78.50
66708;DHT22;53622;0.000;0.000;2023-06-10T12:35:28;25.70;78.60
66708;DHT22;53622;0.000;0.000;2023-06-10T12:37:59;25.70;78.40
66708;DHT22;53622;0.000;0.000;2023-06-10T12:40:31;25.70;78.50
66708;DHT22;53622;0.000;0.000;2023-06-10T12:43:01;25.70;78.30
66708;DHT22;53622;0.000;0.000;2023-06-10T12:45:32;25.70;78.00
66708;DHT22;53622;0.000;0.000;2023-06-10T12:48:06;25.70;77.80
66708;DHT22;53622;0.000;0.000;2023-06-10T12:50:40;25.70;77.60
66708;DHT22;53622;0.000;0.000;2023-06-10T12:53:11;25.70;77.50
66708;DHT22;53622;0.000;0.000;2023-06-10T12:55:40;25.70;77.30
66708;DHT22;53622;0.000;0.000;2023-06-10T12:58:10;25.70;77.40
66708;DHT22;53622;0.000;0.000;2023-06-10T13:00:39;25.70;77.30
66708;DHT22;53622;0.000;0.000;2023-06-10T13:03:10;25.70;77.30
66708;DHT22;53622;0.000;0.000;2023-06-10T13:05:41;25.70;77.20
66708;DHT22;53622;0.000;0.000;2023-06-10T13:08:10;25.70;77.20
66708;DHT22;53622;0.000;0.000;2023-06-10T13:10:40;25.70;77.20
66708;DHT22;53622;0.000;0.000;2023-06-10T13:13:10;25.70;77.10
66708;DHT22;53622;0.000;0.000;2023-06-10T13:15:40;25.70;77.10
66708;DHT22;53622;0.000;0.000;2023-06-10T13:18:11;25.70;76.60
66708;DHT22;53622;0.000;0.000;2023-06-10T13:20:42;25.70;76.20
66708;DHT22;53622;0.000;0.000;2023-06-10T13:23:12;25.70;75.90
66708;DHT22;53622;0.000;0.000;2023-06-10T13:25:42;25.70;75.80
66708;DHT22;53622;0.000;0.000;2023-06-10T13:28:12;25.80;75.50
66708;DHT22;53622;0.000;0.000;2023-06-10T13:30:42;25.80;75.50
66708;DHT22;53622;0.000;0.000;2023-06-10T13:33:11;25.80;75.40
66708;DHT22;53622;0.000;0.000;2023-06-10T13:35:42;25.80;75.30
66708;DHT22;53622;0.000;0.000;2023-06-10T13:38:12;25.80;74.90
66708;DHT22;53622;0.000;0.000;2023-06-10T13:40:42;25.80;74.60
66708;DHT22;53622;0.000;0.000;2023-06-10T13:43:12;25.80;74.50
66708;DHT22;53622;0.000;0.000;2023-06-10T13:45:41;25.80;74.40
66708;DHT22;53622;0.000;0.000;2023-06-10T13:48:10;25.80;74.20
66708;DHT22;53622;0.000;0.000;2023-06-10T13:50:42;25.80;74.20
66708;DHT22;53622;0.000;0.000;2023-06-10T13:53:13;25.80;74.10
66708;DHT22;53622;0.000;0.000;2023-06-10T13:55:43;25.80;74.20
66708;DHT22;53622;0.000;0.000;2023-06-10T13:58:13;25.80;74.30
66708;DHT22;53622;0.000;0.000;2023-06-10T14:00:43;25.70;74.00
66708;DHT22;53622;0.000;0.000;2023-06-10T14:03:12;25.70;74.20
66708;DHT22;53622;0.000;0.000;2023-06-10T14:05:44;25.70;74.10
66708;DHT22;53622;0.000;0.000;2023-06-10T14:08:13;25.70;74.10
66708;DHT22;53622;0.000;0.000;2023-06-10T14:10:43;25.70;74.10
66708;DHT22;53622;0.000;0.000;2023-06-10T14:13:13;25.70;74.00
66708;DHT22;53622;0.000;0.000;2023-06-10T14:15:43;25.70;74.20
66708;DHT22;53622;0.000;0.000;2023-06-10T14:18:12;25.70;74.30
66708;DHT22;53622;0.000;0.000;2023-06-10T14:20:43;25.70;74.30
66708;DHT22;53622;0.000;0.000;2023-06-10T14:23:13;25.70;74.20
66708;DHT22;53622;0.000;0.000;2023-06-10T14:25:43;25.70;74.20
66708;DHT22;53622;0.000;0.000;2023-06-10T14:28:16;25.70;74.20
66708;DHT22;53622;0.000;0.000;2023-06-10T14:30:45;25.70;74.10
66708;DHT22;53622;0.000;0.000;2023-06-10T14:33:16;25.70;74.00
66708;DHT22;53622;0.000;0.000;2023-06-10T14:35:47;25.70;73.90
66708;DHT22;53622;0.000;0.000;2023-06-10T14:38:17;25.70;74.00
66708;DHT22;53622;0.000;0.000;2023-06-10T14:40:46;25.70;74.00
66708;DHT22;53622;0.000;0.000;2023-06-10T14:43:16;25.70;73.90
66708;DHT22;53622;0.000;0.000;2023-06-10T14:45:45;25.70;73.90
66708;DHT22;53622;0.000;0.000;2023-06-10T14:48:14;25.70;73.90
66708;DHT22;53622;0.000;0.000;2023-06-10T14:50:44;25.70;74.40
66708;DHT22;53622;0.000;0.000;2023-06-10T14:53:20;25.70;73.80
66708;DHT22;53622;0.000;0.000;2023-06-10T14:55:50;25.70;73.70
66708;DHT22;53622;0.000;0.000;2023-06-10T14:58:19;25.70;73.70
66708;DHT22;53622;0.000;0.000;2023-06-10T15:00:49;25.70;73.70
66708;DHT22;53622;0.000;0.000;2023-06-10T15:03:19;25.70;73.60
66708;DHT22;53622;0.000;0.000;2023-06-10T15:05:49;25.70;73.70
66708;DHT22;53622;0.000;0.000;2023-06-10T15:08:20;25.70;73.70
66708;DHT22;53622;0.000;0.000;2023-06-10T15:10:51;25.70;73.50
66708;DHT22;53622;0.000;0.000;2023-06-10T15:13:20;25.70;73.70
66708;DHT22;53622;0.000;0.000;2023-06-10T15:15:51;25.70;73.60
66708;DHT22;53622;0.000;0.000;2023-06-10T15:18:20;25.70;73.70
66708;DHT22;53622;0.000;0.000;2023-06-10T15:20:50;25.70;73.60
66708;DHT22;53622;0.000;0.000;2023-06-10T15:23:21;25.70;73.40
66708;DHT22;53622;0.000;0.000;2023-06-10T15:25:51;25.70;73.50
66708;DHT22;53622;0.000;0.000;2023-06-10T15:28:20;25.70;73.40
66708;DHT22;53622;0.000;0.000;2023-06-10T15:30:53;25.70;73.40
66708;DHT22;53622;0.000;0.000;2023-06-10T15:33:23;25.70;73.40
66708;DHT22;53622;0.000;0.000;2023-06-10T15:35:53;25.70;73.30
66708;DHT22;53622;0.000;0.000;2023-06-10T15:38:24;25.70;73.30
66708;DHT22;53622;0.000;0.000;2023-06-10T15:40:54;25.70;73.30
66708;DHT22;53622;0.000;0.000;2023-06-10T15:43:23;25.70;73.10
66708;DHT22;53622;0.000;0.000;2023-06-10T15:45:53;25.80;73.20
66708;DHT22;53622;0.000;0.000;2023-06-10T15:48:22;25.80;73.20
66708;DHT22;53622;0.000;0.000;2023-06-10T15:50:52;25.70;73.30
66708;DHT22;53622;0.000;0.000;2023-06-10T15:53:22;25.70;73.40
66708;DHT22;53622;0.000;0.000;2023-06-10T15:55:53;25.70;73.30
66708;DHT22;53622;0.000;0.000;2023-06-10T15:58:23;25.70;73.40
66708;DHT22;53622;0.000;0.000;2023-06-10T16:00:54;25.70;73.50
66708;DHT22;53622;0.000;0.000;2023-06-10T16:03:24;25.70;73.50
66708;DHT22;53622;0.000;0.000;2023-06-10T16:05:53;25.70;73.30
66708;DHT22;53622;0.000;0.000;2023-06-10T16:08:22;25.70;73.30